Diffa, Niger
Current Conditions -  °F | °C
As of 11:00 AM on Thursday 23 Oct 2014 (Local Time) from FTTJ Reporting Station
Few Clouds Few Clouds  
Wind Chill: 97°   Ceiling: Unl
Heat Index: 100°   Visibility: 6mi
Dew Point: 66°   Wind: 3mph
Humidity: 37%   Direction: NA
Pressure: 29.88"   Gusts: NA
Location:  13.32°N, 12.62°E
Report Text: FTTJ 231000Z VRB03KT 9999 FEW040 36/19 Q1012 NOSIG
Loading
Personal Weather Stations






























Interactive Weather Map
Tropical Storm Tracking
New forecast layout! Learn more

10-Day Weather Forecast

Advertisements
Track Severe Weather on mobile